createdAt,value
2023-05-18T00:00:02.656Z,7.49
2023-05-18T00:01:02.556Z,7.45
2023-05-18T00:02:02.898Z,7.41
2023-05-18T00:03:02.098Z,7.41
2023-05-18T00:04:01.880Z,7.34
2023-05-18T00:05:01.895Z,7.34
2023-05-18T00:06:02.272Z,7.26
2023-05-18T00:07:01.988Z,7.27
2023-05-18T00:08:03.071Z,7.27
2023-05-18T00:09:02.532Z,7.16
2023-05-18T00:10:02.477Z,7.12
2023-05-18T00:11:02.884Z,7.16
2023-05-18T00:12:02.508Z,7.16
2023-05-18T00:13:01.536Z,7.16
2023-05-18T00:14:02.120Z,7.09
2023-05-18T00:15:01.933Z,7.13
2023-05-18T00:16:01.878Z,7.15
2023-05-18T00:17:02.081Z,7.17
2023-05-18T00:18:01.594Z,7.20
2023-05-18T00:19:01.547Z,7.20
2023-05-18T00:20:01.601Z,7.20
2023-05-18T00:21:02.393Z,7.19
2023-05-18T00:22:01.791Z,7.13
2023-05-18T00:23:02.562Z,7.09
2023-05-18T00:24:02.169Z,7.08
2023-05-18T00:25:02.425Z,7.12
2023-05-18T00:26:02.281Z,7.12
2023-05-18T00:27:02.087Z,7.08
2023-05-18T00:28:01.924Z,7.07
2023-05-18T00:29:01.747Z,6.94
2023-05-18T00:30:02.119Z,6.84
2023-05-18T00:31:01.997Z,6.89
2023-05-18T00:32:02.309Z,6.90
2023-05-18T00:33:02.277Z,6.89
2023-05-18T00:34:01.912Z,6.91
2023-05-18T00:35:01.926Z,6.91
2023-05-18T00:36:02.155Z,6.94
2023-05-18T00:37:01.981Z,6.89
2023-05-18T00:38:02.746Z,6.94
2023-05-18T00:39:02.193Z,6.95
2023-05-18T00:40:02.394Z,6.91
2023-05-18T00:41:02.236Z,6.94
2023-05-18T00:42:02.839Z,6.89
2023-05-18T00:43:02.210Z,6.89
2023-05-18T00:44:02.061Z,6.90
2023-05-18T00:45:01.940Z,6.86
2023-05-18T00:46:02.445Z,6.80
2023-05-18T00:47:02.164Z,6.80
2023-05-18T00:48:01.763Z,6.77
2023-05-18T00:49:01.627Z,6.76
2023-05-18T00:50:01.467Z,6.72
2023-05-18T00:51:01.657Z,6.73
2023-05-18T00:52:01.393Z,6.69
2023-05-18T00:53:02.048Z,6.68
2023-05-18T00:54:01.685Z,6.66
2023-05-18T00:55:02.051Z,6.65
2023-05-18T00:56:01.877Z,6.62
2023-05-18T00:57:02.273Z,6.61
2023-05-18T00:58:02.703Z,6.58
2023-05-18T00:59:02.288Z,6.59
2023-05-18T01:00:02.514Z,6.61
2023-05-18T01:01:02.473Z,6.56
2023-05-18T01:02:02.392Z,6.53
2023-05-18T01:03:03.577Z,6.53
2023-05-18T01:04:02.972Z,6.53
2023-05-18T01:05:03.133Z,6.51
2023-05-18T01:06:02.627Z,6.50
2023-05-18T01:07:02.622Z,6.50
2023-05-18T01:08:03.306Z,6.48
2023-05-18T01:09:03.493Z,6.48
2023-05-18T01:10:03.522Z,6.47
2023-05-18T01:11:03.504Z,6.43
2023-05-18T01:12:03.108Z,6.41
2023-05-18T01:13:02.762Z,6.41
2023-05-18T01:14:02.464Z,6.38
2023-05-18T01:15:02.441Z,6.43
2023-05-18T01:16:02.611Z,6.40
2023-05-18T01:17:02.584Z,6.41
2023-05-18T01:18:02.977Z,6.40
2023-05-18T01:19:02.676Z,6.43
2023-05-18T01:20:03.109Z,6.36
2023-05-18T01:21:03.090Z,6.33
2023-05-18T01:22:03.181Z,6.33
2023-05-18T01:23:02.739Z,6.33
2023-05-18T01:24:02.744Z,6.32
2023-05-18T01:25:02.820Z,6.30
2023-05-18T01:26:02.706Z,6.30
2023-05-18T01:27:03.182Z,6.30
2023-05-18T01:28:03.446Z,6.30
2023-05-18T01:29:03.070Z,6.30
2023-05-18T01:30:03.470Z,6.30
2023-05-18T01:31:03.298Z,6.28
2023-05-18T01:32:03.528Z,6.28
2023-05-18T01:33:02.907Z,6.22
2023-05-18T01:34:02.616Z,6.19
2023-05-18T01:35:02.891Z,6.19
2023-05-18T01:36:02.751Z,6.19
2023-05-18T01:37:02.794Z,6.16
2023-05-18T01:38:03.331Z,6.03
2023-05-18T01:39:03.314Z,5.91
2023-05-18T01:40:03.408Z,5.91
2023-05-18T01:41:03.452Z,5.91
2023-05-18T01:42:03.346Z,5.83
2023-05-18T01:43:02.914Z,5.78
2023-05-18T01:44:02.645Z,5.71
2023-05-18T01:45:02.779Z,5.71
2023-05-18T01:46:02.410Z,5.77
2023-05-18T01:47:02.926Z,5.77
2023-05-18T01:48:03.192Z,5.82
2023-05-18T01:49:02.872Z,5.86
2023-05-18T01:50:02.757Z,5.85
2023-05-18T01:51:02.692Z,5.82
2023-05-18T01:52:02.568Z,5.81
2023-05-18T01:53:02.703Z,5.73
2023-05-18T01:54:02.693Z,5.67
2023-05-18T01:55:03.260Z,5.67
2023-05-18T01:56:02.847Z,5.68
2023-05-18T01:57:02.751Z,5.68
2023-05-18T01:58:03.324Z,5.57
2023-05-18T01:59:02.975Z,5.59
2023-05-18T02:00:02.998Z,5.59
2023-05-18T02:01:02.978Z,5.60
2023-05-18T02:02:03.439Z,5.64
2023-05-18T02:03:02.844Z,5.68
2023-05-18T02:04:02.856Z,5.70
2023-05-18T02:05:02.652Z,5.70
2023-05-18T02:06:02.214Z,5.67
2023-05-18T02:07:02.505Z,5.64
2023-05-18T02:08:03.149Z,5.66
2023-05-18T02:09:02.821Z,5.64
2023-05-18T02:10:03.006Z,5.66
2023-05-18T02:11:02.913Z,5.64
2023-05-18T02:12:02.835Z,5.67
2023-05-18T02:13:01.830Z,5.68
2023-05-18T02:14:02.417Z,5.66
2023-05-18T02:15:01.997Z,5.64
2023-05-18T02:16:01.815Z,5.60
2023-05-18T02:17:02.012Z,5.57
2023-05-18T02:18:02.296Z,5.57
2023-05-18T02:19:02.540Z,5.57
2023-05-18T02:20:02.521Z,5.59
2023-05-18T02:21:02.714Z,5.59
2023-05-18T02:22:02.792Z,5.56
2023-05-18T02:23:03.079Z,5.56
2023-05-18T02:24:03.048Z,5.52
2023-05-18T02:25:02.973Z,5.45
2023-05-18T02:26:02.605Z,5.45
2023-05-18T02:27:02.943Z,5.40
2023-05-18T02:28:02.140Z,5.37
2023-05-18T02:29:01.998Z,5.30
2023-05-18T02:30:02.151Z,5.31
2023-05-18T02:31:02.065Z,5.31
2023-05-18T02:32:02.157Z,5.34
2023-05-18T02:33:02.260Z,5.31
2023-05-18T02:34:02.605Z,5.31
2023-05-18T02:35:02.140Z,5.32
2023-05-18T02:36:02.819Z,5.32
2023-05-18T02:37:02.588Z,5.35
2023-05-18T02:38:02.450Z,5.38
2023-05-18T02:39:02.631Z,5.37
2023-05-18T02:40:02.567Z,5.37
2023-05-18T02:41:02.882Z,5.41
2023-05-18T02:42:02.651Z,5.40
2023-05-18T02:43:02.454Z,5.41
2023-05-18T02:44:02.592Z,5.41
2023-05-18T02:45:02.971Z,5.40
2023-05-18T02:46:02.766Z,5.37
2023-05-18T02:47:02.376Z,5.38
2023-05-18T02:48:01.965Z,5.35
2023-05-18T02:49:02.319Z,5.37
2023-05-18T02:50:01.869Z,5.34
2023-05-18T02:51:01.821Z,5.37
2023-05-18T02:52:01.929Z,5.37
2023-05-18T02:53:02.779Z,5.35
2023-05-18T02:54:02.384Z,5.37
2023-05-18T02:55:02.610Z,5.35
2023-05-18T02:56:02.322Z,5.31
2023-05-18T02:57:02.948Z,5.31
2023-05-18T02:58:02.616Z,5.31
2023-05-18T02:59:02.767Z,5.30
2023-05-18T03:00:02.633Z,5.23
2023-05-18T03:01:02.785Z,5.20
2023-05-18T03:02:02.802Z,5.14
2023-05-18T03:03:03.893Z,5.12
2023-05-18T03:04:03.645Z,5.07
2023-05-18T03:05:03.505Z,5.09
2023-05-18T03:06:03.306Z,5.12
2023-05-18T03:07:03.755Z,5.13
2023-05-18T03:08:03.380Z,5.14
2023-05-18T03:09:03.718Z,5.10
2023-05-18T03:10:03.336Z,5.12
2023-05-18T03:11:03.588Z,5.05
2023-05-18T03:12:03.751Z,5.04
2023-05-18T03:13:03.308Z,5.04
2023-05-18T03:14:03.452Z,4.99
2023-05-18T03:15:03.179Z,4.98
2023-05-18T03:16:02.978Z,4.99
2023-05-18T03:17:02.759Z,5.02
2023-05-18T03:18:03.590Z,5.01
2023-05-18T03:19:03.398Z,5.02
2023-05-18T03:20:03.616Z,5.02
2023-05-18T03:21:03.543Z,5.02
2023-05-18T03:22:03.510Z,5.02
2023-05-18T03:23:03.387Z,5.02
2023-05-18T03:24:02.991Z,5.02
2023-05-18T03:25:03.243Z,5.02
2023-05-18T03:26:03.453Z,4.99
2023-05-18T03:27:03.180Z,5.01
2023-05-18T03:28:02.810Z,4.99
2023-05-18T03:29:02.944Z,4.96
2023-05-18T03:30:02.528Z,4.99
2023-05-18T03:31:03.040Z,4.98
2023-05-18T03:32:02.646Z,4.95
2023-05-18T03:33:03.247Z,4.94
2023-05-18T03:34:03.442Z,4.92
2023-05-18T03:35:03.295Z,4.91
2023-05-18T03:36:03.207Z,4.88
2023-05-18T03:37:03.163Z,4.88
2023-05-18T03:38:02.842Z,4.88
2023-05-18T03:39:02.661Z,4.88
2023-05-18T03:40:02.558Z,4.89
2023-05-18T03:41:02.953Z,4.88
2023-05-18T03:42:02.998Z,4.88
2023-05-18T03:43:03.458Z,4.86
2023-05-18T03:44:03.445Z,4.84
2023-05-18T03:45:02.881Z,4.80
2023-05-18T03:46:02.962Z,4.77
2023-05-18T03:47:03.075Z,4.76
2023-05-18T03:48:02.886Z,4.75
2023-05-18T03:49:02.923Z,4.72
2023-05-18T03:50:02.856Z,4.72
2023-05-18T03:51:02.864Z,4.70
2023-05-18T03:52:02.582Z,4.72
2023-05-18T03:53:03.208Z,4.69
2023-05-18T03:54:03.282Z,4.70
2023-05-18T03:55:03.181Z,4.65
2023-05-18T03:56:03.055Z,4.62
2023-05-18T03:57:02.897Z,4.62
2023-05-18T03:58:03.548Z,4.62
2023-05-18T03:59:03.392Z,4.64
2023-05-18T04:00:03.144Z,4.64
2023-05-18T04:01:03.459Z,4.62
2023-05-18T04:02:03.382Z,4.64
2023-05-18T04:03:02.916Z,4.65
2023-05-18T04:04:03.318Z,4.65
2023-05-18T04:05:03.092Z,4.65
2023-05-18T04:06:02.979Z,4.61
2023-05-18T04:07:02.886Z,4.58
2023-05-18T04:08:02.580Z,4.59
2023-05-18T04:09:02.440Z,4.57
2023-05-18T04:10:02.407Z,4.51
2023-05-18T04:11:02.433Z,4.52
2023-05-18T04:12:02.531Z,4.50
2023-05-18T04:13:02.661Z,4.47
2023-05-18T04:14:02.280Z,4.51
2023-05-18T04:15:02.146Z,4.40
2023-05-18T04:16:02.567Z,4.39
2023-05-18T04:17:02.514Z,4.37
2023-05-18T04:18:03.279Z,4.29
2023-05-18T04:19:04.425Z,4.25
2023-05-18T04:20:03.067Z,4.25
2023-05-18T04:21:02.933Z,4.19
2023-05-18T04:22:02.881Z,4.08
2023-05-18T04:23:02.345Z,4.04
2023-05-18T04:24:02.330Z,4.10
2023-05-18T04:25:02.567Z,4.12
2023-05-18T04:26:02.505Z,4.10
2023-05-18T04:27:02.061Z,4.14
2023-05-18T04:28:03.045Z,4.15
2023-05-18T04:29:02.780Z,4.24
2023-05-18T04:30:02.675Z,4.26
2023-05-18T04:31:02.684Z,4.25
2023-05-18T04:32:02.836Z,4.29
2023-05-18T04:33:02.683Z,4.37
2023-05-18T04:34:02.405Z,4.42
2023-05-18T04:35:02.391Z,4.47
2023-05-18T04:36:02.378Z,4.46
2023-05-18T04:37:02.380Z,4.43
2023-05-18T04:38:02.004Z,4.37
2023-05-18T04:39:02.092Z,4.28
2023-05-18T04:40:02.076Z,4.21
2023-05-18T04:41:02.452Z,4.19
2023-05-18T04:42:02.213Z,4.18
2023-05-18T04:43:02.321Z,4.26
2023-05-18T04:44:02.780Z,4.34
2023-05-18T04:45:02.972Z,4.34
2023-05-18T04:46:02.718Z,4.32
2023-05-18T04:47:02.651Z,4.29
2023-05-18T04:48:02.369Z,4.26
2023-05-18T04:49:02.963Z,4.28
2023-05-18T04:50:02.668Z,4.33
2023-05-18T04:51:02.586Z,4.39
2023-05-18T04:52:02.752Z,4.39
2023-05-18T04:53:01.982Z,4.42
2023-05-18T04:54:02.298Z,4.37
2023-05-18T04:55:02.480Z,4.36
2023-05-18T04:56:02.560Z,4.36
2023-05-18T04:57:02.117Z,4.40
2023-05-18T04:58:02.067Z,4.39
2023-05-18T04:59:02.260Z,4.46
2023-05-18T05:00:02.023Z,4.47
2023-05-18T05:01:02.420Z,4.55
2023-05-18T05:02:02.491Z,4.62
2023-05-18T05:03:02.635Z,4.69
2023-05-18T05:04:02.705Z,4.76
2023-05-18T05:05:02.911Z,4.76
2023-05-18T05:06:02.962Z,4.86
2023-05-18T05:07:02.867Z,4.94
2023-05-18T05:08:02.910Z,4.98
2023-05-18T05:09:03.166Z,4.94
2023-05-18T05:10:02.980Z,4.92
2023-05-18T05:11:03.059Z,5.02
2023-05-18T05:12:03.320Z,5.13
2023-05-18T05:13:02.311Z,5.16
2023-05-18T05:14:02.587Z,5.12
2023-05-18T05:15:02.668Z,5.13
2023-05-18T05:16:02.368Z,5.19
2023-05-18T05:17:02.456Z,5.27
2023-05-18T05:18:02.520Z,5.34
2023-05-18T05:19:02.672Z,5.40
2023-05-18T05:20:02.619Z,5.43
2023-05-18T05:21:02.986Z,5.53
2023-05-18T05:22:02.723Z,5.60
2023-05-18T05:23:02.790Z,5.70
2023-05-18T05:24:02.714Z,5.74
2023-05-18T05:25:05.120Z,5.75
2023-05-18T05:26:02.750Z,5.83
2023-05-18T05:27:02.698Z,5.88
2023-05-18T05:28:02.375Z,5.95
2023-05-18T05:29:02.424Z,6.01
2023-05-18T05:30:02.256Z,6.04
2023-05-18T05:31:02.401Z,6.10
2023-05-18T05:32:02.517Z,6.16
2023-05-18T05:33:02.641Z,6.26
2023-05-18T05:34:02.592Z,6.36
2023-05-18T05:35:02.500Z,6.48
2023-05-18T05:36:02.544Z,6.54
2023-05-18T05:37:02.375Z,6.59
2023-05-18T05:38:02.770Z,6.68
2023-05-18T05:39:02.744Z,6.80
2023-05-18T05:40:02.757Z,6.91
2023-05-18T05:41:02.844Z,7.05
2023-05-18T05:42:02.976Z,7.09
2023-05-18T05:43:03.081Z,7.19
2023-05-18T05:44:03.061Z,7.29
2023-05-18T05:45:03.373Z,7.40
2023-05-18T05:46:03.180Z,7.52
2023-05-18T05:47:03.314Z,7.62
2023-05-18T05:48:02.558Z,7.74
2023-05-18T05:49:02.627Z,7.87
2023-05-18T05:50:02.928Z,7.99
2023-05-18T05:51:02.857Z,8.11
2023-05-18T05:52:02.819Z,8.21
2023-05-18T05:53:02.574Z,8.33
2023-05-18T05:54:02.596Z,8.42
2023-05-18T05:55:02.732Z,8.50
2023-05-18T05:56:02.815Z,8.58
2023-05-18T05:57:02.790Z,8.68
2023-05-18T05:58:02.936Z,8.73
2023-05-18T05:59:03.204Z,8.84
2023-05-18T06:00:02.901Z,8.93
2023-05-18T06:01:03.010Z,9.05
2023-05-18T06:02:02.982Z,9.16
2023-05-18T06:03:02.235Z,9.25
2023-05-18T06:04:02.158Z,9.28
2023-05-18T06:05:02.196Z,9.38
2023-05-18T06:06:02.273Z,9.46
2023-05-18T06:07:02.238Z,9.58
2023-05-18T06:08:02.611Z,9.64
2023-05-18T06:09:02.392Z,9.70
2023-05-18T06:10:02.883Z,9.75
2023-05-18T06:11:02.919Z,9.85
2023-05-18T06:12:02.952Z,9.94
2023-05-18T06:13:01.952Z,10.01
2023-05-18T06:14:02.349Z,10.03
2023-05-18T06:15:02.057Z,10.06
2023-05-18T06:16:01.675Z,10.10
2023-05-18T06:17:01.760Z,10.14
2023-05-18T06:18:02.003Z,10.21
2023-05-18T06:19:02.359Z,10.36
2023-05-18T06:20:01.952Z,10.51
2023-05-18T06:21:01.891Z,10.65
2023-05-18T06:22:01.992Z,10.78
2023-05-18T06:23:02.813Z,10.94
2023-05-18T06:24:02.682Z,10.99
2023-05-18T06:25:02.707Z,11.07
2023-05-18T06:26:02.782Z,11.13
2023-05-18T06:27:03.052Z,11.17
2023-05-18T06:28:02.087Z,11.14
2023-05-18T06:29:01.819Z,11.10
2023-05-18T06:30:02.281Z,11.03
2023-05-18T06:31:02.297Z,10.98
2023-05-18T06:32:02.403Z,10.94
2023-05-18T06:33:02.200Z,10.98
2023-05-18T06:34:02.406Z,11.07
2023-05-18T06:35:02.284Z,11.19
2023-05-18T06:36:02.141Z,11.28
2023-05-18T06:37:02.133Z,11.39
2023-05-18T06:38:02.238Z,11.53
2023-05-18T06:39:02.377Z,11.64
2023-05-18T06:40:02.544Z,11.75
2023-05-18T06:41:02.162Z,11.85
2023-05-18T06:42:02.016Z,11.94
2023-05-18T06:43:02.929Z,12.05
2023-05-18T06:44:02.879Z,12.12
2023-05-18T06:45:03.120Z,12.24
2023-05-18T06:46:03.386Z,12.33
2023-05-18T06:47:02.543Z,12.46
2023-05-18T06:48:02.048Z,12.52
2023-05-18T06:49:01.654Z,12.63
2023-05-18T06:50:01.580Z,12.78
2023-05-18T06:51:01.772Z,12.93
2023-05-18T06:52:01.919Z,13.06
2023-05-18T06:53:02.645Z,13.18
2023-05-18T06:54:02.803Z,13.25
2023-05-18T06:55:02.374Z,13.38
2023-05-18T06:56:02.903Z,13.38
2023-05-18T06:57:02.623Z,13.37
2023-05-18T06:58:02.736Z,13.38
2023-05-18T06:59:02.762Z,13.43
2023-05-18T07:00:02.983Z,13.49
2023-05-18T07:01:02.847Z,13.58
2023-05-18T07:02:02.848Z,13.56
2023-05-18T07:03:02.873Z,13.61
2023-05-18T07:04:02.655Z,13.71
2023-05-18T07:05:02.637Z,13.84
2023-05-18T07:06:02.428Z,13.96
2023-05-18T07:07:02.868Z,14.09
2023-05-18T07:08:03.050Z,14.13
2023-05-18T07:09:03.073Z,14.10
2023-05-18T07:10:02.811Z,14.17
2023-05-18T07:11:03.055Z,14.25
2023-05-18T07:12:02.978Z,14.31
2023-05-18T07:13:02.975Z,14.44
2023-05-18T07:14:03.047Z,14.52
2023-05-18T07:15:03.310Z,14.56
2023-05-18T07:16:03.265Z,14.64
2023-05-18T07:17:02.925Z,14.68
2023-05-18T07:18:02.792Z,14.78
2023-05-18T07:19:02.423Z,14.83
2023-05-18T07:20:02.615Z,14.84
2023-05-18T07:21:02.510Z,14.87
2023-05-18T07:22:02.805Z,14.84
2023-05-18T07:23:02.296Z,14.86
2023-05-18T07:24:02.093Z,14.83
2023-05-18T07:25:01.941Z,14.91
2023-05-18T07:26:02.083Z,15.03
2023-05-18T07:27:02.169Z,15.13
2023-05-18T07:28:02.464Z,15.21
2023-05-18T07:29:01.984Z,15.23
2023-05-18T07:30:02.538Z,15.24
2023-05-18T07:31:02.215Z,15.31
2023-05-18T07:32:02.547Z,15.43
2023-05-18T07:33:02.600Z,15.56
2023-05-18T07:34:02.589Z,15.61
2023-05-18T07:35:02.399Z,15.60
2023-05-18T07:36:02.219Z,15.70
2023-05-18T07:37:02.751Z,15.82
2023-05-18T07:38:02.504Z,15.94
2023-05-18T07:39:02.197Z,15.99
2023-05-18T07:40:02.565Z,15.99
2023-05-18T07:41:02.399Z,16.11
2023-05-18T07:42:02.710Z,16.25
2023-05-18T07:43:02.333Z,16.33
2023-05-18T07:44:02.003Z,16.41
2023-05-18T07:45:02.179Z,16.49
2023-05-18T07:46:02.029Z,16.50
2023-05-18T07:47:02.246Z,16.50
2023-05-18T07:48:02.983Z,16.55
2023-05-18T07:49:02.945Z,16.56
2023-05-18T07:50:02.848Z,16.63
2023-05-18T07:51:02.342Z,16.68
2023-05-18T07:52:02.525Z,16.81
2023-05-18T07:53:03.004Z,16.96
2023-05-18T07:54:02.705Z,17.06
2023-05-18T07:55:02.888Z,17.13
2023-05-18T07:56:03.033Z,17.11
2023-05-18T07:57:03.111Z,17.08
2023-05-18T07:58:02.673Z,17.07
2023-05-18T07:59:02.531Z,17.14
2023-05-18T08:00:02.639Z,17.26
2023-05-18T08:01:02.448Z,17.26
2023-05-18T08:02:02.290Z,17.33
2023-05-18T08:03:01.759Z,17.25
2023-05-18T08:04:01.853Z,17.13
2023-05-18T08:05:01.584Z,17.17
2023-05-18T08:06:02.008Z,17.10
2023-05-18T08:07:01.953Z,16.96
2023-05-18T08:08:02.628Z,16.92
2023-05-18T08:09:02.581Z,16.98
2023-05-18T08:10:02.155Z,16.93
2023-05-18T08:11:02.314Z,16.81
2023-05-18T08:12:02.004Z,16.90
2023-05-18T08:13:02.129Z,17.10
2023-05-18T08:14:02.256Z,17.23
2023-05-18T08:15:02.157Z,17.38
2023-05-18T08:16:11.075Z,17.53
2023-05-18T08:17:02.715Z,17.70
2023-05-18T08:18:02.409Z,17.81
2023-05-18T08:19:02.527Z,17.88
2023-05-18T08:20:02.888Z,17.89
2023-05-18T08:21:02.898Z,17.94
2023-05-18T08:22:02.937Z,17.99
2023-05-18T08:23:02.781Z,18.07
2023-05-18T08:24:02.382Z,18.18
2023-05-18T08:25:01.852Z,18.31
2023-05-18T08:26:01.992Z,18.40
2023-05-18T08:27:02.056Z,18.49
2023-05-18T08:28:01.866Z,18.61
2023-05-18T08:29:02.375Z,18.76
2023-05-18T08:30:02.493Z,18.90
2023-05-18T08:31:02.682Z,18.91
2023-05-18T08:32:02.673Z,18.94
2023-05-18T08:33:02.676Z,18.94
2023-05-18T08:34:01.873Z,18.92
2023-05-18T08:35:02.246Z,18.94
2023-05-18T08:36:02.133Z,19.11
2023-05-18T08:37:02.356Z,19.24
2023-05-18T08:38:02.978Z,19.42
2023-05-18T08:39:02.817Z,19.47
2023-05-18T08:40:02.717Z,19.51
2023-05-18T08:41:02.857Z,19.63
2023-05-18T08:42:02.521Z,19.70
2023-05-18T08:43:02.689Z,19.72
2023-05-18T08:44:02.994Z,19.76
2023-05-18T08:45:02.830Z,19.80
2023-05-18T08:46:02.710Z,19.76
2023-05-18T08:47:02.572Z,19.80
2023-05-18T08:48:02.748Z,19.83
2023-05-18T08:49:02.220Z,19.94
2023-05-18T08:50:01.536Z,20.06
2023-05-18T08:51:01.871Z,20.15
2023-05-18T08:52:01.978Z,20.27
2023-05-18T08:53:01.661Z,20.35
2023-05-18T08:54:02.349Z,20.43
2023-05-18T08:55:02.426Z,20.53
2023-05-18T08:56:02.460Z,20.59
2023-05-18T08:57:02.265Z,20.64
2023-05-18T08:58:02.355Z,20.56
2023-05-18T08:59:02.022Z,20.58
2023-05-18T09:00:01.955Z,20.47
2023-05-18T09:01:01.725Z,20.46
2023-05-18T09:02:01.995Z,20.49
2023-05-18T09:03:02.179Z,20.64
2023-05-18T09:04:02.353Z,20.50
2023-05-18T09:05:02.417Z,20.33
2023-05-18T09:06:02.455Z,20.25
2023-05-18T09:07:01.827Z,20.05
2023-05-18T09:08:01.862Z,19.98
2023-05-18T09:09:02.734Z,20.03
2023-05-18T09:10:02.568Z,19.87
2023-05-18T09:11:02.385Z,19.70
2023-05-18T09:12:02.454Z,19.87
2023-05-18T09:13:02.738Z,20.08
2023-05-18T09:14:02.515Z,20.33
2023-05-18T09:15:02.694Z,20.58
2023-05-18T09:16:02.724Z,20.69
2023-05-18T09:17:02.557Z,20.72
2023-05-18T09:18:02.466Z,20.71
2023-05-18T09:19:02.772Z,20.72
2023-05-18T09:20:02.712Z,20.77
2023-05-18T09:21:03.264Z,20.87
2023-05-18T09:22:03.273Z,21.01
2023-05-18T09:23:03.157Z,21.17
2023-05-18T09:24:02.766Z,21.20
2023-05-18T09:25:02.393Z,21.16
2023-05-18T09:26:02.547Z,21.26
2023-05-18T09:27:02.446Z,21.26
2023-05-18T09:28:02.683Z,21.20
2023-05-18T09:29:02.350Z,21.19
2023-05-18T09:30:02.658Z,21.19
2023-05-18T09:31:02.378Z,21.29
2023-05-18T09:32:02.847Z,21.39
2023-05-18T09:33:02.435Z,21.44
2023-05-18T09:34:02.550Z,21.45
2023-05-18T09:35:02.410Z,21.56
2023-05-18T09:36:02.564Z,21.64
2023-05-18T09:37:02.804Z,21.78
2023-05-18T09:38:02.992Z,21.90
2023-05-18T09:39:02.312Z,21.97
2023-05-18T09:40:02.465Z,22.04
2023-05-18T09:41:02.573Z,22.09
2023-05-18T09:42:02.534Z,22.04
2023-05-18T09:43:02.622Z,22.02
2023-05-18T09:44:02.990Z,21.98
2023-05-18T09:45:02.812Z,21.90
2023-05-18T09:46:02.924Z,21.67
2023-05-18T09:47:03.427Z,21.56
2023-05-18T09:48:02.890Z,21.54
2023-05-18T09:49:02.624Z,21.51
2023-05-18T09:50:02.811Z,21.54
2023-05-18T09:51:03.226Z,21.53
2023-05-18T09:52:03.171Z,21.46
2023-05-18T09:53:02.612Z,21.46
2023-05-18T09:54:02.812Z,21.36
2023-05-18T09:55:03.015Z,21.35
2023-05-18T09:56:02.870Z,21.35
2023-05-18T09:57:10.688Z,21.46
2023-05-18T09:58:02.892Z,21.61
2023-05-18T09:59:02.411Z,21.75
2023-05-18T10:00:02.099Z,21.81
2023-05-18T10:01:02.291Z,21.94
2023-05-18T10:02:02.674Z,21.99
2023-05-18T10:03:02.328Z,21.99
2023-05-18T10:04:03.130Z,22.07
2023-05-18T10:05:02.650Z,22.09
2023-05-18T10:06:02.903Z,22.12
2023-05-18T10:07:03.011Z,22.16
2023-05-18T10:08:02.573Z,22.23
2023-05-18T10:09:03.269Z,22.22
2023-05-18T10:10:02.903Z,22.25
2023-05-18T10:11:02.759Z,22.23
2023-05-18T10:12:03.213Z,22.23
2023-05-18T10:13:03.081Z,22.16
2023-05-18T10:14:02.797Z,22.06
2023-05-18T10:15:02.893Z,22.01
2023-05-18T10:16:02.330Z,22.02
2023-05-18T10:18:02.767Z,21.94
2023-05-18T10:19:02.879Z,21.99
2023-05-18T10:20:03.062Z,22.06
2023-05-18T10:21:02.810Z,22.02
2023-05-18T10:22:03.035Z,21.98
2023-05-18T10:23:02.722Z,22.09
2023-05-18T10:24:02.956Z,22.17
2023-05-18T10:25:03.018Z,22.20
2023-05-18T10:26:03.244Z,22.25
2023-05-18T10:27:03.402Z,22.22
2023-05-18T10:28:02.814Z,22.12
2023-05-18T10:29:02.591Z,22.14
2023-05-18T10:30:02.926Z,22.13
2023-05-18T10:31:02.953Z,22.20
2023-05-18T10:32:04.472Z,22.19
2023-05-18T10:33:03.960Z,22.13
2023-05-18T10:34:03.005Z,22.10
2023-05-18T10:35:02.526Z,21.97
2023-05-18T10:36:02.989Z,21.97
2023-05-18T10:37:02.570Z,22.01
2023-05-18T10:38:02.553Z,22.07
2023-05-18T10:39:03.056Z,22.17
2023-05-18T10:40:02.940Z,22.32
2023-05-18T10:41:03.011Z,22.35
2023-05-18T10:42:02.917Z,22.32
2023-05-18T10:43:02.763Z,22.46
2023-05-18T10:44:03.361Z,22.56
2023-05-18T10:45:02.909Z,22.52
2023-05-18T10:46:03.103Z,22.56
2023-05-18T10:47:03.351Z,22.57
2023-05-18T10:48:03.199Z,22.60
2023-05-18T10:49:02.543Z,22.54
2023-05-18T10:50:02.642Z,22.64
2023-05-18T10:51:02.612Z,22.65
2023-05-18T10:52:02.608Z,22.65
2023-05-18T10:53:02.778Z,22.56
2023-05-18T10:54:02.952Z,22.46
2023-05-18T10:55:03.071Z,22.49
2023-05-18T10:56:03.232Z,22.56
2023-05-18T10:57:02.930Z,22.56
2023-05-18T10:58:02.820Z,22.60
2023-05-18T10:59:03.051Z,22.59
2023-05-18T11:00:02.705Z,22.65
2023-05-18T11:01:03.137Z,22.75
2023-05-18T11:02:02.939Z,22.69
2023-05-18T11:03:03.138Z,22.78
2023-05-18T11:04:02.334Z,22.78
2023-05-18T11:05:02.149Z,22.52
2023-05-18T11:06:02.459Z,22.41
2023-05-18T11:07:02.453Z,22.52
2023-05-18T11:08:02.490Z,22.56
2023-05-18T11:09:02.754Z,22.44
2023-05-18T11:10:02.469Z,22.10
2023-05-18T11:11:02.802Z,21.71
2023-05-18T11:12:02.379Z,21.76
2023-05-18T11:13:02.548Z,21.90
2023-05-18T11:14:02.219Z,21.97
2023-05-18T11:15:02.457Z,22.09
2023-05-18T11:16:02.907Z,22.13
2023-05-18T11:17:02.836Z,22.27
2023-05-18T11:18:02.616Z,22.44
2023-05-18T11:19:03.005Z,22.53
2023-05-18T11:20:02.699Z,22.56
2023-05-18T11:21:02.599Z,22.52
2023-05-18T11:22:02.507Z,22.52
2023-05-18T11:23:02.789Z,22.56
2023-05-18T11:24:02.019Z,22.69
2023-05-18T11:25:01.996Z,22.75
2023-05-18T11:26:02.083Z,22.80
2023-05-18T11:27:02.093Z,22.87
2023-05-18T11:28:01.998Z,23.08
2023-05-18T11:29:01.902Z,23.27
2023-05-18T11:30:14.913Z,23.39
2023-05-18T11:31:02.343Z,23.50
2023-05-18T11:32:02.564Z,23.27
2023-05-18T11:33:02.214Z,23.14
2023-05-18T11:34:02.867Z,23.22
2023-05-18T11:35:02.594Z,23.31
2023-05-18T11:36:02.762Z,23.15
2023-05-18T11:37:02.961Z,23.17
2023-05-18T11:38:02.923Z,23.15
2023-05-18T11:39:02.053Z,23.15
2023-05-18T11:40:05.606Z,23.11
2023-05-18T11:41:01.970Z,23.26
2023-05-18T11:42:01.865Z,23.42
2023-05-18T11:43:02.190Z,23.52
2023-05-18T11:44:02.642Z,23.52
2023-05-18T11:45:01.999Z,23.57
2023-05-18T11:46:02.660Z,23.49
2023-05-18T11:47:02.649Z,23.55
2023-05-18T11:48:02.394Z,23.57
2023-05-18T11:49:02.193Z,23.62
2023-05-18T11:50:02.261Z,23.68
2023-05-18T11:51:02.642Z,23.62
2023-05-18T11:52:02.661Z,23.65
2023-05-18T11:53:02.288Z,23.82
2023-05-18T11:54:02.519Z,23.87
2023-05-18T11:55:02.327Z,23.97
2023-05-18T11:56:02.665Z,24.10
2023-05-18T11:57:02.165Z,24.22
2023-05-18T11:58:02.236Z,24.44
2023-05-18T11:59:02.299Z,24.59
2023-05-18T12:00:02.140Z,24.71
2023-05-18T12:01:02.281Z,24.19
2023-05-18T12:02:01.862Z,23.50
2023-05-18T12:03:02.323Z,23.35
2023-05-18T12:04:02.562Z,23.50
2023-05-18T12:05:02.309Z,23.53
2023-05-18T12:06:02.740Z,23.42
2023-05-18T12:07:02.458Z,23.42
2023-05-18T12:08:02.052Z,23.43
2023-05-18T12:09:03.777Z,23.64
2023-05-18T12:10:02.237Z,23.80
2023-05-18T12:11:02.450Z,24.00
2023-05-18T12:12:02.556Z,24.13
2023-05-18T12:13:02.133Z,24.29
2023-05-18T12:14:02.717Z,24.34
2023-05-18T12:15:02.921Z,24.45
2023-05-18T12:16:02.553Z,24.42
2023-05-18T12:17:02.852Z,24.34
2023-05-18T12:18:03.297Z,24.26
2023-05-18T12:19:03.132Z,24.22
2023-05-18T12:20:02.927Z,24.07
2023-05-18T12:21:02.971Z,24.13
2023-05-18T12:22:02.973Z,23.95
2023-05-18T12:23:02.946Z,23.94
2023-05-18T12:24:02.758Z,23.86
2023-05-18T12:25:02.901Z,23.97
2023-05-18T12:26:02.914Z,23.92
2023-05-18T12:27:04.004Z,24.02
2023-05-18T12:28:03.047Z,24.17
2023-05-18T12:29:03.542Z,24.20
2023-05-18T12:30:02.936Z,24.29
2023-05-18T12:31:03.461Z,24.49
2023-05-18T12:32:03.317Z,24.73
2023-05-18T12:33:03.271Z,24.92
2023-05-18T12:34:02.693Z,25.01
2023-05-18T12:35:02.576Z,25.02
2023-05-18T12:36:02.165Z,25.01
2023-05-18T12:37:02.328Z,24.91
2023-05-18T12:38:03.140Z,25.09
2023-05-18T12:39:02.271Z,25.22
2023-05-18T12:40:02.586Z,25.09
2023-05-18T12:41:02.264Z,24.76
2023-05-18T12:42:02.565Z,24.67
2023-05-18T12:43:02.191Z,24.76
2023-05-18T12:44:02.806Z,24.87
2023-05-18T12:45:05.087Z,24.92
2023-05-18T12:46:02.736Z,24.92
2023-05-18T12:47:02.827Z,24.68
2023-05-18T12:48:02.761Z,24.42
2023-05-18T12:49:03.391Z,24.50
2023-05-18T12:50:03.461Z,24.61
2023-05-18T12:51:02.807Z,24.82
2023-05-18T12:52:02.864Z,24.77
2023-05-18T12:53:03.030Z,24.76
2023-05-18T12:54:02.403Z,24.94
2023-05-18T12:55:02.873Z,24.98
2023-05-18T12:56:02.817Z,25.00
2023-05-18T12:57:02.835Z,25.02
2023-05-18T12:58:02.582Z,25.00
2023-05-18T12:59:02.950Z,24.95
2023-05-18T13:00:03.196Z,24.88
2023-05-18T13:01:03.516Z,24.75
2023-05-18T13:02:02.991Z,24.67
2023-05-18T13:03:02.924Z,24.88
2023-05-18T13:04:02.753Z,25.07
2023-05-18T13:05:02.536Z,25.15